Estación Meteorológica Peña el Pijo (Robertgarden) [ 07/21/18 15:43:20 CEST ]

Fecha Hora Presion(HPa) Temp (°C) Humedad % Rocio (°C) Viento ( m/s) Direccion Lluvia 1Hora(mm) Lluvia 24H(mm) LLuvia Total(mm)
2017-Nov-27 01:01:46 1017.000 0.4 77 -3.2         1468.01
2017-Nov-27 02:01:44 1016.900 -0.1 79 -3.3         1468.01
2017-Nov-27 03:01:44 1016.700 -1.2 80 -4.2         1468.01
2017-Nov-27 04:01:42 1017.000 -2.1 81 -4.9         1468.01
2017-Nov-27 05:03:24 1016.400 -2.5 82 -5.2         1468.01
2017-Nov-27 06:10:04 1016.500 -2.3 82 -5.0         1468.01
2017-Nov-27 07:01:48 1016.900 -2.7 83 -5.2         1468.01
2017-Nov-27 08:01:38 1016.900 -2.2 84 -4.6         1468.01
2017-Nov-27 09:01:52 1017.100 0.1 84 -2.3         1468.01
2017-Nov-27 10:01:49 1017.200 3.4 85 1.1         1468.01
2017-Nov-27 11:01:41 1017.000 7.0 82 4.1         1468.01
2017-Nov-27 12:01:42 1016.500 11.9 65 5.5         1468.01
2017-Nov-27 13:01:54 1015.600 13.2 59 5.3         1468.01
2017-Nov-27 14:02:03 1014.500 14.9 50 4.6         1468.01
2017-Nov-27 15:01:48 1014.200 14.8 50 4.5         1468.01
2017-Nov-27 16:01:47 1014.000 13.6 52 3.9         1468.01
2017-Nov-27 17:01:34 1013.800 12.6 55 3.7         1468.01
2017-Nov-27 18:01:44 1014.200 10.6 58 2.6         1468.01
2017-Nov-27 19:01:44 1014.400 7.9 63 1.3         1468.01
2017-Nov-27 20:01:46 1014.500 5.3 68 -0.1         1468.01
2017-Nov-27 21:01:52 1014.300 4.4 72 -0.2         1468.01
2017-Nov-27 22:01:33 1014.100 3.6 75 -0.4         1468.01
2017-Nov-27 23:01:47 1013.700 3.6 77 -0.1         1468.01

Temperatura Máxima:14°    Temperatura Mínima:-2°
Presión Máxima:1017.200 Hpa    Presión Mínima:1013.700 Hpa


Volver